Time;durP1;ratioP1;P1;durP2;ratioP2;P2;SDS_P1;SDS_P2;PMS_P1;PMS_P2;Temp;Humidity;BMP_temperature;BMP_pressure;BME280_temperature;BME280_humidity;BME280_pressure;Samples;Min_cycle;Max_cycle;Signal;HPM_P1;HPM_P2
2022/04/18 00:00:34;;;;;;;12.07;4.88;;;;;;;;;;5094444;28;20028;-83
2022/04/18 00:03:03;;;;;;;10.13;5.18;;;;;;;;;;5095113;28;20097;-84
2022/04/18 00:05:30;;;;;;;13.38;6.53;;;;;;;;;;5094628;28;20429;-83
2022/04/18 00:07:55;;;;;;;14.85;6.90;;;;;;;;;;5094303;28;20036;-86
2022/04/18 00:10:21;;;;;;;20.50;7.15;;;;;;;;;;5104795;28;20419;-82
2022/04/18 00:12:46;;;;;;;17.40;8.73;;;;;;;;;;5094294;28;20499;-84
2022/04/18 00:15:12;;;;;;;16.83;8.82;;;;;;;;;;5094379;28;20028;-84
2022/04/18 00:17:37;;;;;;;16.67;9.30;;;;;;;;;;5092557;28;20070;-83
2022/04/18 00:20:04;;;;;;;34.30;11.93;;;;;;;;;;5094378;28;20114;-83
2022/04/18 00:22:29;;;;;;;33.10;14.48;;;;;;;;;;5094067;28;20103;-84
2022/04/18 00:24:55;;;;;;;31.88;11.95;;;;;;;;;;5094247;28;20181;-83
2022/04/18 00:27:20;;;;;;;29.38;11.80;;;;;;;;;;5094235;28;20027;-83
2022/04/18 00:29:47;;;;;;;13.48;6.13;;;;;;;;;;5095994;28;20028;-82
2022/04/18 00:32:14;;;;;;;15.23;6.07;;;;;;;;;;5096388;28;20090;-83
2022/04/18 00:34:40;;;;;;;13.65;6.93;;;;;;;;;;5076360;28;20032;-84
2022/04/18 00:37:05;;;;;;;17.55;8.15;;;;;;;;;;5092488;28;20372;-83
2022/04/18 00:39:31;;;;;;;21.95;9.07;;;;;;;;;;5094050;28;20433;-84
2022/04/18 00:41:57;;;;;;;17.10;8.73;;;;;;;;;;5094042;28;20020;-82
2022/04/18 00:44:22;;;;;;;16.50;7.38;;;;;;;;;;5094831;28;20034;-86
2022/04/18 00:46:48;;;;;;;13.90;6.60;;;;;;;;;;5098193;28;20415;-86
2022/04/18 00:49:13;;;;;;;15.85;6.28;;;;;;;;;;5098121;28;20032;-83
2022/04/18 00:51:39;;;;;;;14.15;7.00;;;;;;;;;;5102328;28;20032;-85
2022/04/18 00:54:04;;;;;;;14.15;6.93;;;;;;;;;;5098400;28;20031;-84
2022/04/18 00:56:30;;;;;;;15.48;5.78;;;;;;;;;;5098164;28;20059;-83
2022/04/18 00:58:56;;;;;;;10.85;5.13;;;;;;;;;;5096893;28;20028;-83
2022/04/18 01:01:23;;;;;;;13.70;5.80;;;;;;;;;;5096760;28;20279;-85
2022/04/18 01:03:49;;;;;;;11.75;5.18;;;;;;;;;;5096875;28;20039;-86
2022/04/18 01:06:15;;;;;;;9.20;5.07;;;;;;;;;;5097628;28;20111;-86
2022/04/18 01:08:41;;;;;;;12.50;5.65;;;;;;;;;;5097784;28;20063;-86
2022/04/18 01:11:06;;;;;;;11.30;5.43;;;;;;;;;;5103555;28;20056;-84
2022/04/18 01:13:41;;;;;;;12.60;5.85;;;;;;;;;;5103146;28;20039;-85
2022/04/18 01:16:06;;;;;;;13.95;5.70;;;;;;;;;;5097632;28;20024;-86
2022/04/18 01:18:32;;;;;;;12.40;5.07;;;;;;;;;;5096455;28;20040;-86
2022/04/18 01:20:57;;;;;;;11.27;5.22;;;;;;;;;;5095990;28;20040;-83
2022/04/18 01:23:23;;;;;;;17.00;6.53;;;;;;;;;;5097577;28;20086;-84
2022/04/18 01:31:17;;;;;;;11.68;4.78;;;;;;;;;;5099379;28;20464;-83
2022/04/18 01:33:44;;;;;;;11.32;5.13;;;;;;;;;;5105499;28;20064;-84
2022/04/18 01:36:10;;;;;;;12.10;5.38;;;;;;;;;;5097653;28;20062;-84
2022/04/18 01:38:35;;;;;;;11.50;5.10;;;;;;;;;;5097142;28;20059;-84
2022/04/18 01:41:01;;;;;;;11.15;5.78;;;;;;;;;;5097167;28;20032;-83
2022/04/18 01:43:26;;;;;;;10.55;4.82;;;;;;;;;;5097094;28;20092;-84
2022/04/18 01:45:51;;;;;;;14.40;5.07;;;;;;;;;;5097052;28;20430;-83
2022/04/18 01:48:17;;;;;;;10.48;5.57;;;;;;;;;;5097320;28;20036;-83
2022/04/18 01:50:42;;;;;;;11.98;5.65;;;;;;;;;;5098198;28;20032;-83
2022/04/18 01:53:08;;;;;;;10.15;4.75;;;;;;;;;;5109929;28;20063;-79
2022/04/18 01:55:34;;;;;;;8.82;4.68;;;;;;;;;;5098764;28;20032;-84
2022/04/18 01:57:59;;;;;;;9.25;4.28;;;;;;;;;;5098458;28;20032;-84
2022/04/18 02:00:25;;;;;;;8.77;4.00;;;;;;;;;;5098428;28;20028;-84
2022/04/18 02:02:52;;;;;;;6.55;3.35;;;;;;;;;;5101966;28;20040;-81
2022/04/18 02:05:17;;;;;;;8.07;4.20;;;;;;;;;;5119573;28;20004;-81
2022/04/18 02:07:43;;;;;;;7.38;3.63;;;;;;;;;;5118658;28;20028;-82
2022/04/18 02:10:08;;;;;;;8.15;4.20;;;;;;;;;;5113784;28;20014;-83
2022/04/18 02:12:34;;;;;;;6.70;3.78;;;;;;;;;;5118604;28;20039;-80
2022/04/18 02:14:59;;;;;;;9.38;4.60;;;;;;;;;;5111988;28;20031;-83
2022/04/18 02:17:25;;;;;;;11.02;5.20;;;;;;;;;;5103282;28;20459;-84
2022/04/18 02:19:50;;;;;;;10.65;4.88;;;;;;;;;;5096160;28;20028;-82
2022/04/18 02:22:16;;;;;;;10.88;5.18;;;;;;;;;;5096305;28;20476;-83
2022/04/18 02:24:41;;;;;;;13.02;5.93;;;;;;;;;;5096356;28;20048;-83
2022/04/18 02:27:08;;;;;;;13.27;6.25;;;;;;;;;;5096300;28;20031;-84
2022/04/18 02:29:33;;;;;;;12.50;6.30;;;;;;;;;;5096243;28;20119;-84
2022/04/18 02:34:43;;;;;;;12.48;5.80;;;;;;;;;;5102502;28;20478;-84
2022/04/18 02:37:09;;;;;;;15.23;6.43;;;;;;;;;;5096062;28;20070;-84
2022/04/18 02:39:34;;;;;;;12.30;6.45;;;;;;;;;;5096057;28;20039;-84
2022/04/18 02:42:00;;;;;;;13.45;6.43;;;;;;;;;;5095992;28;20113;-84
2022/04/18 02:44:25;;;;;;;13.77;6.32;;;;;;;;;;5095928;28;20032;-83
2022/04/18 02:46:51;;;;;;;15.13;6.43;;;;;;;;;;5095867;28;20039;-83
2022/04/18 02:49:17;;;;;;;17.77;6.80;;;;;;;;;;5095583;28;20038;-84
2022/04/18 02:51:42;;;;;;;17.25;7.45;;;;;;;;;;5095977;28;20028;-83
2022/04/18 02:54:08;;;;;;;17.95;7.40;;;;;;;;;;5096506;28;20035;-84
2022/04/18 02:56:33;;;;;;;17.55;7.40;;;;;;;;;;5101271;28;20028;-84
2022/04/18 02:58:59;;;;;;;19.98;8.00;;;;;;;;;;5095858;28;20548;-83
2022/04/18 03:01:24;;;;;;;19.73;9.25;;;;;;;;;;5094441;28;20024;-84
2022/04/18 03:03:50;;;;;;;28.80;12.57;;;;;;;;;;5095396;28;20365;-83
2022/04/18 03:06:15;;;;;;;29.92;13.88;;;;;;;;;;5095738;28;20020;-84
2022/04/18 03:08:40;;;;;;;27.42;12.07;;;;;;;;;;5094146;28;20032;-83
2022/04/18 03:11:07;;;;;;;32.97;13.57;;;;;;;;;;5095293;28;20055;-83
2022/04/18 03:13:33;;;;;;;21.58;10.30;;;;;;;;;;5095584;28;20024;-84
2022/04/18 03:15:59;;;;;;;20.65;10.57;;;;;;;;;;5084375;28;20405;-83
2022/04/18 03:18:25;;;;;;;19.55;8.50;;;;;;;;;;5094489;28;20036;-84
2022/04/18 03:20:50;;;;;;;16.15;7.82;;;;;;;;;;5095234;28;20028;-84
2022/04/18 03:23:16;;;;;;;18.08;8.57;;;;;;;;;;5095212;28;20031;-83
2022/04/18 03:25:41;;;;;;;20.33;8.82;;;;;;;;;;5095320;28;20495;-83
2022/04/18 03:28:07;;;;;;;21.25;9.30;;;;;;;;;;5095076;28;20103;-84
2022/04/18 03:30:32;;;;;;;18.02;8.77;;;;;;;;;;5093564;28;20376;-85
2022/04/18 03:32:58;;;;;;;17.35;8.10;;;;;;;;;;5095004;28;20510;-83
2022/04/18 03:35:23;;;;;;;19.17;8.57;;;;;;;;;;5095136;28;20346;-83
2022/04/18 03:40:34;;;;;;;17.58;7.78;;;;;;;;;;5094863;28;20418;-84
2022/04/18 03:42:59;;;;;;;19.73;6.70;;;;;;;;;;5094796;28;20023;-84
2022/04/18 03:45:24;;;;;;;16.73;7.55;;;;;;;;;;5094633;28;20070;-83
2022/04/18 03:47:50;;;;;;;11.50;6.18;;;;;;;;;;5094762;28;20028;-84
2022/04/18 03:50:15;;;;;;;15.10;6.45;;;;;;;;;;5095025;28;20031;-84
2022/04/18 03:52:41;;;;;;;14.70;6.90;;;;;;;;;;5094703;28;20035;-84
2022/04/18 03:55:07;;;;;;;13.45;7.00;;;;;;;;;;5093497;28;20481;-83
2022/04/18 03:57:32;;;;;;;12.35;6.28;;;;;;;;;;5099821;28;20142;-83
2022/04/18 03:59:58;;;;;;;12.13;6.80;;;;;;;;;;5095254;28;20024;-84
2022/04/18 04:02:23;;;;;;;17.20;7.38;;;;;;;;;;5094827;28;20031;-84
2022/04/18 04:04:48;;;;;;;14.70;6.28;;;;;;;;;;5094418;28;20024;-83
2022/04/18 04:07:14;;;;;;;11.85;6.38;;;;;;;;;;5094417;28;20032;-84
2022/04/18 04:09:40;;;;;;;16.45;6.60;;;;;;;;;;5093109;28;20034;-81
2022/04/18 04:12:06;;;;;;;14.20;5.93;;;;;;;;;;5093172;28;20364;-82
2022/04/18 04:14:32;;;;;;;14.77;7.18;;;;;;;;;;5094420;28;20028;-79
2022/04/18 04:16:57;;;;;;;19.85;7.95;;;;;;;;;;5077458;28;20047;-84
2022/04/18 04:19:23;;;;;;;15.05;7.43;;;;;;;;;;5098165;28;20032;-81
2022/04/18 04:21:48;;;;;;;22.83;9.38;;;;;;;;;;5094152;28;20107;-81
2022/04/18 04:24:14;;;;;;;18.80;8.55;;;;;;;;;;5094271;28;20046;-81
2022/04/18 04:26:39;;;;;;;25.38;9.75;;;;;;;;;;5094473;28;20028;-83
2022/04/18 04:29:04;;;;;;;41.03;12.52;;;;;;;;;;5094711;28;20578;-84
2022/04/18 04:31:30;;;;;;;75.85;19.48;;;;;;;;;;5093429;28;20032;-83
2022/04/18 04:33:55;;;;;;;69.50;19.65;;;;;;;;;;5094082;28;20118;-82
2022/04/18 04:36:21;;;;;;;61.40;18.58;;;;;;;;;;5094381;28;20096;-81
2022/04/18 04:38:46;;;;;;;62.83;16.67;;;;;;;;;;5102245;28;20016;-83
2022/04/18 04:41:12;;;;;;;41.17;14.25;;;;;;;;;;5093814;28;20028;-83
2022/04/18 04:43:41;;;;;;;51.67;16.70;;;;;;;;;;5092186;28;20028;-82
2022/04/18 04:46:06;;;;;;;41.33;13.77;;;;;;;;;;5091479;28;20032;-83
2022/04/18 04:48:31;;;;;;;25.13;9.80;;;;;;;;;;5093232;28;20196;-83
2022/04/18 04:50:57;;;;;;;30.52;9.73;;;;;;;;;;5099145;28;20091;-84
2022/04/18 04:53:22;;;;;;;20.70;8.23;;;;;;;;;;5106110;28;20031;-85
2022/04/18 04:55:48;;;;;;;19.65;7.93;;;;;;;;;;5101112;28;20040;-81
2022/04/18 04:58:17;;;;;;;16.65;7.57;;;;;;;;;;5093908;28;20051;-84
2022/04/18 05:00:52;;;;;;;17.70;8.10;;;;;;;;;;5099227;28;20047;-82
2022/04/18 05:03:19;;;;;;;17.05;7.15;;;;;;;;;;5099812;28;20035;-80
2022/04/18 05:05:44;;;;;;;17.27;7.13;;;;;;;;;;5085299;28;20051;-85
2022/04/18 05:08:45;;;;;;;17.85;6.43;;;;;;;;;;5093324;28;20397;-82
2022/04/18 05:11:26;;;;;;;17.85;6.82;;;;;;;;;;5113183;28;20039;-84
2022/04/18 05:13:51;;;;;;;;;;;;;;;;;;5117836;28;20147;-84
2022/04/18 05:16:17;;;;;;;13.25;6.05;;;;;;;;;;5103911;28;20022;-81
2022/04/18 05:18:42;;;;;;;12.88;6.13;;;;;;;;;;5091539;28;20024;-79
2022/04/18 05:21:08;;;;;;;13.57;6.03;;;;;;;;;;5113280;28;20030;-84
2022/04/18 05:23:33;;;;;;;22.55;8.27;;;;;;;;;;5091612;28;20033;-79
2022/04/18 05:25:59;;;;;;;22.73;8.32;;;;;;;;;;5095456;28;20376;-80
2022/04/18 05:28:24;;;;;;;25.50;8.93;;;;;;;;;;5102076;28;20637;-79
2022/04/18 05:30:50;;;;;;;25.08;8.90;;;;;;;;;;5095336;28;20027;-76
2022/04/18 05:33:16;;;;;;;20.20;8.10;;;;;;;;;;5108193;27;20027;-81
2022/04/18 05:35:41;;;;;;;19.95;8.18;;;;;;;;;;5110386;27;20050;-82
2022/04/18 05:38:10;;;;;;;21.40;9.57;;;;;;;;;;5111283;28;20460;-82
2022/04/18 05:40:35;;;;;;;27.67;10.95;;;;;;;;;;5125114;27;20137;-80
2022/04/18 05:43:01;;;;;;;20.50;9.52;;;;;;;;;;5118490;27;20080;-82
2022/04/18 05:48:19;;;;;;;16.95;9.00;;;;;;;;;;5069229;28;20055;-85
2022/04/18 05:50:51;;;;;;;20.73;9.43;;;;;;;;;;5107254;27;20020;-88
2022/04/18 05:53:17;;;;;;;20.70;9.40;;;;;;;;;;5107873;28;20114;-84
2022/04/18 05:55:43;;;;;;;18.92;8.90;;;;;;;;;;5113993;27;20031;-83
2022/04/18 05:58:09;;;;;;;20.92;9.57;;;;;;;;;;5118147;27;20037;-81
2022/04/18 06:00:34;;;;;;;25.50;10.25;;;;;;;;;;5115207;28;20038;-80
2022/04/18 06:03:01;;;;;;;24.20;10.23;;;;;;;;;;5116444;28;20148;-82
2022/04/18 06:05:27;;;;;;;21.80;8.82;;;;;;;;;;5114087;28;20035;-86
2022/04/18 06:07:52;;;;;;;18.58;8.05;;;;;;;;;;5096759;28;20156;-87
2022/04/18 06:10:18;;;;;;;15.50;7.18;;;;;;;;;;5113450;28;20039;-85
2022/04/18 06:12:44;;;;;;;14.50;7.25;;;;;;;;;;5111392;28;20047;-82
2022/04/18 06:15:23;;;;;;;11.32;5.43;;;;;;;;;;5111148;28;20073;-83
2022/04/18 06:17:49;;;;;;;11.70;5.53;;;;;;;;;;5090542;28;20101;-83
2022/04/18 06:20:15;;;;;;;12.65;6.72;;;;;;;;;;5094084;28;20028;-84
2022/04/18 06:22:40;;;;;;;10.75;5.55;;;;;;;;;;5115315;28;20039;-85
2022/04/18 06:25:08;;;;;;;8.63;5.10;;;;;;;;;;5106666;28;20639;-86
2022/04/18 06:27:34;;;;;;;11.52;5.05;;;;;;;;;;5104651;28;20032;-89
2022/04/18 06:29:59;;;;;;;9.38;4.93;;;;;;;;;;5078017;28;20043;-88
2022/04/18 06:32:25;;;;;;;8.15;4.53;;;;;;;;;;5093770;28;20338;-82
2022/04/18 06:34:51;;;;;;;9.80;4.80;;;;;;;;;;5092407;28;20054;-84
2022/04/18 06:37:16;;;;;;;6.20;4.28;;;;;;;;;;5093014;28;20059;-84
2022/04/18 06:39:55;;;;;;;8.25;4.65;;;;;;;;;;5117208;27;20019;-81
2022/04/18 06:42:30;;;;;;;12.13;5.18;;;;;;;;;;5133742;27;20028;-82
2022/04/18 06:44:56;;;;;;;11.13;5.20;;;;;;;;;;5106516;28;20134;-81
2022/04/18 06:47:21;;;;;;;7.40;4.78;;;;;;;;;;5111908;28;20110;-87
2022/04/18 06:49:48;;;;;;;6.38;4.00;;;;;;;;;;5117441;28;20024;-88
2022/04/18 06:52:14;;;;;;;13.15;5.80;;;;;;;;;;5098222;28;20517;-86
2022/04/18 06:54:39;;;;;;;9.45;4.80;;;;;;;;;;5100383;28;20127;-82
2022/04/18 06:57:05;;;;;;;6.20;3.88;;;;;;;;;;5109830;28;20038;-84
2022/04/18 06:59:30;;;;;;;7.10;4.45;;;;;;;;;;5108808;28;20032;-88
2022/04/18 07:02:11;;;;;;;6.32;4.05;;;;;;;;;;5084110;28;20024;-89
2022/04/18 07:04:49;;;;;;;6.25;4.28;;;;;;;;;;5118217;28;20058;-82
2022/04/18 07:07:14;;;;;;;6.65;4.43;;;;;;;;;;5093327;28;20032;-86
2022/04/18 07:10:16;;;;;;;;;;;;;;;;;;;;;
2022/04/18 07:13:08;;;;;;;7.43;4.35;;;;;;;;;;5071629;28;20046;-79
2022/04/18 07:15:34;;;;;;;8.52;4.90;;;;;;;;;;5094862;28;20127;-79
2022/04/18 07:18:03;;;;;;;8.93;5.28;;;;;;;;;;5093971;28;20451;-84
2022/04/18 07:20:29;;;;;;;29.98;12.00;;;;;;;;;;5117927;28;20012;-82
2022/04/18 07:22:54;;;;;;;10.30;6.00;;;;;;;;;;5102957;28;20400;-82
2022/04/18 07:25:20;;;;;;;12.10;5.60;;;;;;;;;;5112207;28;20365;-78
2022/04/18 07:27:48;;;;;;;12.20;6.40;;;;;;;;;;5104284;28;20028;-80
2022/04/18 07:30:20;;;;;;;10.43;6.22;;;;;;;;;;5090305;28;20024;-76
2022/04/18 07:32:46;;;;;;;11.32;6.25;;;;;;;;;;5076674;28;20119;-79
2022/04/18 07:35:11;;;;;;;13.15;6.43;;;;;;;;;;5092961;28;20495;-79
2022/04/18 07:38:48;;;;;;;12.48;6.68;;;;;;;;;;5102598;28;20039;-77
2022/04/18 07:40:22;;;;;;;12.82;7.05;;;;;;;;;;5111694;28;20026;-78
2022/04/18 07:42:48;;;;;;;14.50;7.38;;;;;;;;;;5115881;28;20102;-82
2022/04/18 07:45:13;;;;;;;14.52;7.25;;;;;;;;;;5113178;28;20345;-79
2022/04/18 07:47:39;;;;;;;18.05;8.20;;;;;;;;;;5112965;28;20114;-85
2022/04/18 07:50:07;;;;;;;15.05;7.35;;;;;;;;;;5111757;28;20047;-86
2022/04/18 07:52:32;;;;;;;12.90;6.72;;;;;;;;;;5115437;28;20028;-88
2022/04/18 07:54:58;;;;;;;9.05;5.50;;;;;;;;;;5096783;28;20131;-85
2022/04/18 07:57:32;;;;;;;12.70;5.72;;;;;;;;;;5114450;28;20102;-83
2022/04/18 07:59:58;;;;;;;14.38;7.38;;;;;;;;;;5119076;28;20045;-83
2022/04/18 08:02:24;;;;;;;12.27;6.57;;;;;;;;;;5109128;28;20087;-82
2022/04/18 08:04:50;;;;;;;12.25;6.43;;;;;;;;;;5106039;28;20036;-80
2022/04/18 08:07:15;;;;;;;12.43;7.18;;;;;;;;;;5099042;28;20380;-76
2022/04/18 08:09:41;;;;;;;9.68;5.88;;;;;;;;;;5102096;28;20016;-78
2022/04/18 08:12:12;;;;;;;11.57;5.93;;;;;;;;;;5108467;28;20039;-78
2022/04/18 08:14:38;;;;;;;10.82;5.65;;;;;;;;;;5106609;28;20028;-80
2022/04/18 08:17:05;;;;;;;14.68;6.38;;;;;;;;;;5086327;28;20201;-80
2022/04/18 08:19:30;;;;;;;10.02;5.45;;;;;;;;;;5098961;28;20035;-81
2022/04/18 08:21:58;;;;;;;13.05;6.47;;;;;;;;;;5111959;28;20028;-81
2022/04/18 08:24:24;;;;;;;10.60;5.82;;;;;;;;;;5114410;28;20151;-82
2022/04/18 08:26:49;;;;;;;8.93;4.90;;;;;;;;;;5104017;28;20031;-81
2022/04/18 08:29:16;;;;;;;8.77;5.00;;;;;;;;;;5102895;28;20023;-79
2022/04/18 08:31:51;;;;;;;10.55;6.43;;;;;;;;;;5100168;28;20031;-83
2022/04/18 08:34:17;;;;;;;11.77;5.55;;;;;;;;;;5108566;28;20268;-81
2022/04/18 08:36:43;;;;;;;9.77;5.30;;;;;;;;;;5114525;28;20110;-82
2022/04/18 08:39:27;;;;;;;9.40;5.38;;;;;;;;;;5096255;28;20047;-79
2022/04/18 08:41:53;;;;;;;11.00;4.80;;;;;;;;;;5121076;28;20046;-85
2022/04/18 08:44:27;;;;;;;11.20;6.13;;;;;;;;;;5115581;28;20024;-84
2022/04/18 08:46:55;;;;;;;15.30;6.43;;;;;;;;;;5108400;28;20049;-83
2022/04/18 08:54:57;;;;;;;11.95;5.25;;;;;;;;;;5108697;28;20038;-85
2022/04/18 08:57:23;;;;;;;9.98;5.03;;;;;;;;;;5088918;28;20417;-80
2022/04/18 08:59:50;;;;;;;7.93;4.60;;;;;;;;;;5113872;28;20039;-86
2022/04/18 09:02:15;;;;;;;9.25;5.50;;;;;;;;;;5121310;28;20073;-83
2022/04/18 09:04:41;;;;;;;8.60;4.55;;;;;;;;;;5114498;28;20035;-82
2022/04/18 09:07:11;;;;;;;11.82;5.28;;;;;;;;;;5112849;28;20031;-84
2022/04/18 09:09:37;;;;;;;9.30;5.45;;;;;;;;;;5082146;28;20123;-80
2022/04/18 09:12:03;;;;;;;9.57;5.75;;;;;;;;;;5109111;28;20119;-82
2022/04/18 09:14:28;;;;;;;8.55;4.82;;;;;;;;;;5103479;28;20047;-83
2022/04/18 09:16:54;;;;;;;10.55;5.40;;;;;;;;;;5096325;28;20551;-82
2022/04/18 09:19:38;;;;;;;13.20;5.63;;;;;;;;;;5097742;28;20058;-82
2022/04/18 09:22:03;;;;;;;13.48;6.70;;;;;;;;;;5102649;28;20063;-80
2022/04/18 09:24:35;;;;;;;9.77;5.47;;;;;;;;;;5079361;28;20050;-80
2022/04/18 09:27:04;;;;;;;8.95;4.75;;;;;;;;;;5093681;28;20503;-81
2022/04/18 09:29:39;;;;;;;8.45;4.72;;;;;;;;;;5109266;28;20135;-80
2022/04/18 09:32:08;;;;;;;9.00;5.03;;;;;;;;;;5089358;28;20444;-83
2022/04/18 09:34:35;;;;;;;8.63;4.80;;;;;;;;;;5105326;28;20038;-81
2022/04/18 09:37:14;;;;;;;10.88;4.82;;;;;;;;;;5096796;28;20090;-80
2022/04/18 09:39:41;;;;;;;10.68;4.80;;;;;;;;;;5100474;28;20054;-82
2022/04/18 09:42:09;;;;;;;9.60;5.32;;;;;;;;;;5122133;28;20031;-82
2022/04/18 09:44:37;;;;;;;7.25;4.53;;;;;;;;;;5103278;28;20099;-83
2022/04/18 09:47:02;;;;;;;9.52;5.43;;;;;;;;;;5089126;28;20036;-81
2022/04/18 09:49:36;;;;;;;9.52;4.38;;;;;;;;;;5108350;27;20042;-80
2022/04/18 09:52:07;;;;;;;10.48;4.60;;;;;;;;;;5118312;27;20062;-85
2022/04/18 09:54:32;;;;;;;7.82;4.35;;;;;;;;;;5110745;28;20020;-82
2022/04/18 09:57:06;;;;;;;10.63;4.90;;;;;;;;;;5087432;28;20028;-82
2022/04/18 09:59:32;;;;;;;8.32;4.38;;;;;;;;;;5090276;28;20038;-81
2022/04/18 10:01:58;;;;;;;18.15;7.03;;;;;;;;;;5121457;28;20407;-83
2022/04/18 10:04:24;;;;;;;11.55;4.30;;;;;;;;;;5114983;28;20186;-81
2022/04/18 10:06:51;;;;;;;8.32;4.45;;;;;;;;;;5113774;28;20051;-82
2022/04/18 10:09:17;;;;;;;15.48;6.25;;;;;;;;;;5081005;28;20040;-82
2022/04/18 10:11:43;;;;;;;7.07;4.70;;;;;;;;;;5085839;28;20081;-82
2022/04/18 10:14:08;;;;;;;8.77;4.68;;;;;;;;;;5097128;28;20024;-83
2022/04/18 10:16:35;;;;;;;13.98;6.28;;;;;;;;;;5113593;28;20538;-81
2022/04/18 10:19:05;;;;;;;11.15;5.00;;;;;;;;;;5116326;28;20077;-83
2022/04/18 10:21:31;;;;;;;11.40;5.53;;;;;;;;;;5111790;28;20365;-80
2022/04/18 10:24:18;;;;;;;9.20;4.50;;;;;;;;;;5105908;28;20028;-77
2022/04/18 10:26:55;;;;;;;8.00;4.57;;;;;;;;;;5113331;28;20486;-78
2022/04/18 10:29:41;;;;;;;9.88;4.97;;;;;;;;;;5111529;28;20027;-80
2022/04/18 10:32:07;;;;;;;14.95;5.00;;;;;;;;;;5097522;28;20084;-80
2022/04/18 10:34:33;;;;;;;14.18;5.50;;;;;;;;;;5114265;28;20051;-80
2022/04/18 10:37:03;;;;;;;10.40;5.88;;;;;;;;;;5111942;28;20122;-80
2022/04/18 10:39:55;;;;;;;10.97;5.70;;;;;;;;;;5109012;28;20922;-78
2022/04/18 10:42:40;;;;;;;8.07;4.40;;;;;;;;;;5115101;28;20027;-80
2022/04/18 10:45:14;;;;;;;7.63;4.45;;;;;;;;;;5110311;28;20120;-85
2022/04/18 10:48:03;;;;;;;6.78;4.30;;;;;;;;;;5097108;28;20109;-78
2022/04/18 10:50:50;;;;;;;7.57;4.28;;;;;;;;;;5114949;28;20035;-79
2022/04/18 10:53:19;;;;;;;7.70;4.40;;;;;;;;;;5113817;28;20591;-80
2022/04/18 10:55:51;;;;;;;6.88;4.05;;;;;;;;;;5111551;28;20028;-79
2022/04/18 10:58:20;;;;;;;7.35;4.07;;;;;;;;;;5110933;28;20626;-80
2022/04/18 11:00:47;;;;;;;6.70;4.22;;;;;;;;;;5124162;28;20372;-83
2022/04/18 11:03:13;;;;;;;7.40;3.92;;;;;;;;;;5115257;28;20038;-81
2022/04/18 11:05:40;;;;;;;6.50;3.85;;;;;;;;;;5098413;28;20028;-84
2022/04/18 11:08:24;;;;;;;9.70;4.78;;;;;;;;;;5090986;28;20019;-84
2022/04/18 11:10:51;;;;;;;10.98;5.18;;;;;;;;;;5118646;28;20084;-85
2022/04/18 11:13:16;;;;;;;7.47;4.18;;;;;;;;;;5110921;28;20031;-79
2022/04/18 11:15:42;;;;;;;7.28;4.03;;;;;;;;;;5109875;28;20148;-81
2022/04/18 11:18:29;;;;;;;5.00;3.42;;;;;;;;;;5091909;28;20085;-82
2022/04/18 11:20:54;;;;;;;6.72;4.18;;;;;;;;;;5114551;28;20739;-82
2022/04/18 11:23:27;;;;;;;6.78;4.40;;;;;;;;;;5117768;28;20117;-83
2022/04/18 11:26:15;;;;;;;7.47;4.00;;;;;;;;;;5121282;28;20023;-80
2022/04/18 11:28:41;;;;;;;10.93;5.80;;;;;;;;;;5112530;28;20039;-76
2022/04/18 11:31:08;;;;;;;8.68;4.30;;;;;;;;;;5105599;27;20032;-78
2022/04/18 11:33:39;;;;;;;11.05;4.80;;;;;;;;;;5088830;28;20032;-77
2022/04/18 11:36:05;;;;;;;9.45;4.35;;;;;;;;;;5100017;28;20027;-77
2022/04/18 11:38:30;;;;;;;8.68;4.45;;;;;;;;;;5090885;28;20481;-77
2022/04/18 11:40:56;;;;;;;5.90;3.80;;;;;;;;;;5096780;28;20217;-84
2022/04/18 11:43:21;;;;;;;6.78;3.97;;;;;;;;;;5087728;28;20355;-85
2022/04/18 11:45:47;;;;;;;6.10;3.70;;;;;;;;;;5089354;28;20578;-86
2022/04/18 11:48:13;;;;;;;8.18;4.22;;;;;;;;;;5086710;28;20030;-84
2022/04/18 11:50:42;;;;;;;6.68;4.10;;;;;;;;;;5087258;28;20263;-87
2022/04/18 11:53:09;;;;;;;7.68;3.90;;;;;;;;;;5094124;28;20055;-87
2022/04/18 11:55:44;;;;;;;6.78;4.40;;;;;;;;;;5091358;28;20485;-86
2022/04/18 11:58:10;;;;;;;6.57;3.92;;;;;;;;;;5091145;28;20032;-82
2022/04/18 12:08:48;;;;;;;8.25;4.60;;;;;;;;;;5094220;28;20077;-85
2022/04/18 12:11:14;;;;;;;6.18;3.63;;;;;;;;;;5093044;28;20415;-87
2022/04/18 12:13:41;;;;;;;6.93;3.40;;;;;;;;;;5096770;28;20039;-84
2022/04/18 12:16:06;;;;;;;7.35;4.13;;;;;;;;;;5093827;28;20400;-84
2022/04/18 12:18:32;;;;;;;8.10;4.10;;;;;;;;;;5093274;28;20115;-80
2022/04/18 12:20:57;;;;;;;6.25;3.90;;;;;;;;;;5093991;28;20081;-82
2022/04/18 12:23:24;;;;;;;6.97;4.38;;;;;;;;;;5091385;28;20107;-81
2022/04/18 12:25:56;;;;;;;6.90;4.03;;;;;;;;;;5091910;28;20078;-80
2022/04/18 12:28:23;;;;;;;9.18;5.40;;;;;;;;;;5092049;28;20130;-81
2022/04/18 12:30:49;;;;;;;49.75;18.48;;;;;;;;;;5092447;28;20103;-81
2022/04/18 12:33:16;;;;;;;47.50;19.30;;;;;;;;;;5093975;28;20123;-81
2022/04/18 12:35:43;;;;;;;11.32;5.68;;;;;;;;;;5093629;28;20028;-82
2022/04/18 12:38:12;;;;;;;8.10;4.50;;;;;;;;;;5094520;28;20040;-85
2022/04/18 12:40:58;;;;;;;9.00;4.82;;;;;;;;;;5104891;28;20040;-81
2022/04/18 12:43:28;;;;;;;12.13;5.18;;;;;;;;;;5096371;28;20024;-81
2022/04/18 12:46:00;;;;;;;12.43;6.18;;;;;;;;;;5097357;28;20024;-82
2022/04/18 12:48:33;;;;;;;17.63;7.50;;;;;;;;;;5097122;28;20027;-81
2022/04/18 12:51:03;;;;;;;47.13;14.40;;;;;;;;;;5096214;28;20066;-84
2022/04/18 12:53:48;;;;;;;7.80;4.35;;;;;;;;;;5097671;28;20024;-86
2022/04/18 12:56:20;;;;;;;21.05;6.43;;;;;;;;;;5097413;28;20503;-83
2022/04/18 12:58:49;;;;;;;14.75;4.78;;;;;;;;;;5100707;28;20023;-80
2022/04/18 13:01:26;;;;;;;7.95;4.40;;;;;;;;;;5105891;28;20035;-79
2022/04/18 13:03:53;;;;;;;9.55;4.32;;;;;;;;;;5097686;28;20054;-79
2022/04/18 13:06:30;;;;;;;10.02;4.63;;;;;;;;;;5095966;28;20078;-81
2022/04/18 13:09:08;;;;;;;8.38;4.75;;;;;;;;;;5096745;28;20027;-81
2022/04/18 13:11:39;;;;;;;9.07;4.80;;;;;;;;;;5096305;28;20444;-80
2022/04/18 13:14:05;;;;;;;8.55;5.00;;;;;;;;;;5097829;28;20431;-80
2022/04/18 13:16:30;;;;;;;9.00;5.13;;;;;;;;;;5096917;28;20036;-79
2022/04/18 13:19:00;;;;;;;30.58;10.70;;;;;;;;;;5097608;28;20455;-80
2022/04/18 13:21:25;;;;;;;8.13;4.40;;;;;;;;;;5103404;28;20074;-82
2022/04/18 13:23:51;;;;;;;6.90;4.38;;;;;;;;;;5097822;28;20464;-83
2022/04/18 13:26:16;;;;;;;7.60;4.32;;;;;;;;;;5096098;28;20024;-86
2022/04/18 13:28:42;;;;;;;9.50;4.53;;;;;;;;;;5097569;28;20031;-85
2022/04/18 13:31:09;;;;;;;9.82;5.03;;;;;;;;;;5096735;28;20063;-85
2022/04/18 13:33:35;;;;;;;22.33;6.85;;;;;;;;;;5098107;28;20056;-83
2022/04/18 13:38:46;;;;;;;16.73;5.68;;;;;;;;;;5096300;28;20473;-85
2022/04/18 13:41:12;;;;;;;10.02;5.05;;;;;;;;;;5101417;28;20038;-84
2022/04/18 13:43:38;;;;;;;9.32;5.07;;;;;;;;;;5097104;28;20051;-83
2022/04/18 13:46:03;;;;;;;8.02;4.53;;;;;;;;;;5097231;28;20072;-84
2022/04/18 13:48:29;;;;;;;8.27;4.15;;;;;;;;;;5097142;28;20039;-83
2022/04/18 13:50:55;;;;;;;8.30;4.40;;;;;;;;;;5096548;28;20357;-83
2022/04/18 13:53:20;;;;;;;10.82;4.45;;;;;;;;;;5095331;28;20055;-86
2022/04/18 13:55:46;;;;;;;7.50;4.22;;;;;;;;;;5096782;28;20453;-86
2022/04/18 13:58:12;;;;;;;6.75;4.25;;;;;;;;;;5091218;28;20043;-85
2022/04/18 14:00:39;;;;;;;6.88;3.88;;;;;;;;;;5122033;28;20012;-78
2022/04/18 14:03:05;;;;;;;13.45;5.15;;;;;;;;;;5118033;28;20345;-79
2022/04/18 14:05:30;;;;;;;8.95;4.40;;;;;;;;;;5098142;28;20032;-80
2022/04/18 14:07:58;;;;;;;12.98;5.78;;;;;;;;;;5115376;28;20024;-80
2022/04/18 14:10:24;;;;;;;18.35;6.00;;;;;;;;;;5116335;28;20064;-80
2022/04/18 14:12:49;;;;;;;8.82;4.60;;;;;;;;;;5117052;28;20444;-79
2022/04/18 14:20:57;;;;;;;6.95;3.28;;;;;;;;;;5125556;28;20407;-79
2022/04/18 14:23:22;;;;;;;8.23;3.70;;;;;;;;;;5102744;28;20028;-80
2022/04/18 14:25:48;;;;;;;8.48;4.85;;;;;;;;;;5124081;28;20028;-80
2022/04/18 14:28:13;;;;;;;8.88;4.90;;;;;;;;;;5123563;28;20101;-80
2022/04/18 14:30:40;;;;;;;9.23;4.65;;;;;;;;;;5117356;28;20030;-80
2022/04/18 14:33:05;;;;;;;8.43;4.80;;;;;;;;;;5116639;28;20360;-80
2022/04/18 14:35:31;;;;;;;9.00;5.15;;;;;;;;;;5116548;28;20026;-80
2022/04/18 14:37:56;;;;;;;8.48;4.32;;;;;;;;;;5115388;28;20449;-79
2022/04/18 14:40:22;;;;;;;58.53;29.20;;;;;;;;;;5115797;28;20054;-80
2022/04/18 14:42:47;;;;;;;17.52;7.80;;;;;;;;;;5120883;28;20407;-79
2022/04/18 14:45:13;;;;;;;10.50;5.47;;;;;;;;;;5116557;28;20023;-79
2022/04/18 14:47:38;;;;;;;8.77;4.57;;;;;;;;;;5116576;28;20370;-80
2022/04/18 14:50:05;;;;;;;8.38;4.20;;;;;;;;;;5116567;28;20039;-80
2022/04/18 14:52:30;;;;;;;9.80;4.85;;;;;;;;;;5115043;28;20020;-79
2022/04/18 14:54:56;;;;;;;12.82;4.70;;;;;;;;;;5114957;28;20037;-80
2022/04/18 14:57:22;;;;;;;7.30;4.15;;;;;;;;;;5097949;28;20031;-79
2022/04/18 14:59:48;;;;;;;8.18;4.43;;;;;;;;;;5114977;28;20028;-79
2022/04/18 15:02:17;;;;;;;10.18;5.00;;;;;;;;;;5114908;28;20038;-79
2022/04/18 15:04:43;;;;;;;8.68;4.20;;;;;;;;;;5116600;28;20055;-79
2022/04/18 15:07:08;;;;;;;8.60;5.05;;;;;;;;;;5114466;28;20058;-80
2022/04/18 15:09:34;;;;;;;11.50;5.75;;;;;;;;;;5114764;28;20464;-80
2022/04/18 15:11:59;;;;;;;8.43;4.60;;;;;;;;;;5114488;28;20444;-79
2022/04/18 15:14:25;;;;;;;8.50;4.43;;;;;;;;;;5114523;28;20032;-80